Time;durP1;ratioP1;P1;durP2;ratioP2;P2;SDS_P1;SDS_P2;PMS_P1;PMS_P2;Temp;Humidity;BMP_temperature;BMP_pressure;BME280_temperature;BME280_humidity;BME280_pressure;Samples;Min_cycle;Max_cycle;Signal;HPM_P1;HPM_P2
2023/03/08 00:01:22;;;;;;;11.30;3.85;;;;;;;-0.01;100.00;100021.97;5072872;28;20127;-52
2023/03/08 00:03:55;;;;;;;15.30;4.00;;;;;;;-0.05;100.00;100026.69;5072515;28;20024;-50
2023/03/08 00:06:22;;;;;;;13.13;4.05;;;;;;;-0.08;100.00;100018.16;5072808;28;20028;-50
2023/03/08 00:08:48;;;;;;;12.48;3.60;;;;;;;-0.13;100.00;100017.72;5073137;28;20035;-51
2023/03/08 00:11:13;;;;;;;7.28;3.50;;;;;;;-0.18;100.00;100014.69;5073401;28;20039;-52
2023/03/08 00:13:39;;;;;;;21.73;4.25;;;;;;;-0.24;100.00;100006.31;5071460;28;20033;-52
2023/03/08 00:16:07;;;;;;;11.30;4.00;;;;;;;-0.26;100.00;100005.59;5089063;28;20094;-51
2023/03/08 00:18:33;;;;;;;10.75;3.97;;;;;;;-0.26;100.00;100005.59;5092178;28;20537;-51
2023/03/08 00:21:05;;;;;;;11.23;4.30;;;;;;;-0.31;100.00;100010.44;5058094;28;20025;-53
2023/03/08 00:23:31;;;;;;;11.85;3.75;;;;;;;-0.33;100.00;100012.38;5052799;28;20163;-51
2023/03/08 00:25:56;;;;;;;13.23;4.18;;;;;;;-0.34;100.00;100016.00;5082812;28;20057;-53
2023/03/08 00:28:22;;;;;;;15.05;4.20;;;;;;;-0.39;100.00;99999.69;5078046;28;20071;-53
2023/03/08 00:30:58;;;;;;;11.68;4.50;;;;;;;-0.44;100.00;100009.81;5072044;28;20107;-52
2023/03/08 00:33:24;;;;;;;18.45;4.38;;;;;;;-0.53;100.00;100000.03;5072244;28;20668;-53
2023/03/08 00:36:12;;;;;;;14.23;4.07;;;;;;;-0.61;100.00;99990.09;5085717;28;20369;-51
2023/03/08 00:38:38;;;;;;;15.10;4.68;;;;;;;-0.58;100.00;99991.66;5091797;28;20028;-52
2023/03/08 00:41:03;;;;;;;10.90;4.28;;;;;;;-0.55;100.00;99983.47;5072952;28;20024;-51
2023/03/08 00:43:29;;;;;;;9.57;3.75;;;;;;;-0.52;100.00;99985.84;5071689;28;20024;-52
2023/03/08 00:45:55;;;;;;;13.13;4.90;;;;;;;-0.51;100.00;99979.59;5088013;28;20024;-52
2023/03/08 00:48:20;;;;;;;16.27;4.82;;;;;;;-0.46;100.00;99969.47;5090258;28;20111;-52
2023/03/08 00:50:46;;;;;;;12.93;5.30;;;;;;;-0.38;100.00;99977.56;5075000;28;20107;-51
2023/03/08 00:53:11;;;;;;;14.85;5.43;;;;;;;-0.32;100.00;99976.19;5071396;28;20024;-51
2023/03/08 00:55:37;;;;;;;17.17;4.80;;;;;;;-0.26;100.00;99984.44;5084862;28;20457;-50
2023/03/08 00:58:03;;;;;;;21.67;5.82;;;;;;;-0.20;100.00;99979.59;5079361;28;20036;-52
2023/03/08 01:00:29;;;;;;;32.15;7.18;;;;;;;-0.17;100.00;99979.31;5071207;28;20478;-52
2023/03/08 01:02:55;;;;;;;28.95;7.40;;;;;;;-0.12;100.00;99979.75;5071189;28;20063;-51
2023/03/08 01:05:20;;;;;;;15.45;5.35;;;;;;;-0.07;100.00;99969.59;5082090;28;20462;-53
2023/03/08 01:07:46;;;;;;;20.00;4.45;;;;;;;-0.02;100.00;99972.69;5091188;28;20024;-52
2023/03/08 01:10:11;;;;;;;10.30;3.60;;;;;;;0.08;100.00;99973.53;5080592;28;20025;-50
2023/03/08 01:12:37;;;;;;;17.15;3.95;;;;;;;0.21;100.00;99971.47;5071492;28;20024;-51
2023/03/08 01:15:04;;;;;;;12.48;3.55;;;;;;;0.32;100.00;99974.97;5079452;28;20028;-52
2023/03/08 01:17:30;;;;;;;11.05;4.13;;;;;;;0.33;100.00;99971.34;5091400;28;20118;-53
2023/03/08 01:19:55;;;;;;;19.08;3.80;;;;;;;0.30;100.00;99961.03;5082749;28;20509;-53
2023/03/08 01:22:20;;;;;;;27.33;4.78;;;;;;;0.27;100.00;99953.38;5090169;28;20520;-51
2023/03/08 01:24:47;;;;;;;15.77;3.72;;;;;;;0.30;100.00;99955.75;5084413;28;20029;-51
2023/03/08 01:27:12;;;;;;;11.20;3.28;;;;;;;0.41;100.00;99942.38;5071318;28;20379;-51
2023/03/08 01:29:38;;;;;;;14.20;3.28;;;;;;;0.45;100.00;99941.16;5071447;28;20115;-51
2023/03/08 01:32:03;;;;;;;19.23;2.70;;;;;;;0.38;100.00;99937.38;5070960;28;20024;-50
2023/03/08 01:34:29;;;;;;;10.57;3.00;;;;;;;0.40;100.00;99925.66;5074248;28;20028;-50
2023/03/08 01:36:54;;;;;;;11.40;2.15;;;;;;;0.41;100.00;99921.19;5091621;28;20016;-50
2023/03/08 01:39:20;;;;;;;9.73;3.22;;;;;;;0.45;100.00;99919.97;5073481;28;20459;-51
2023/03/08 01:41:45;;;;;;;8.35;2.50;;;;;;;0.47;100.00;99918.00;5072086;28;20048;-52
2023/03/08 01:44:18;;;;;;;8.77;2.20;;;;;;;0.48;100.00;99917.03;5070944;28;20021;-52
2023/03/08 01:46:44;;;;;;;13.40;1.98;;;;;;;0.52;100.00;99907.81;5089780;28;20020;-50
2023/03/08 01:49:15;;;;;;;11.13;2.25;;;;;;;0.54;100.00;99900.56;5074477;28;20043;-51
2023/03/08 01:52:01;;;;;;;8.13;3.28;;;;;;;0.57;100.00;99897.63;5058768;28;20032;-50
2023/03/08 01:54:30;;;;;;;6.43;1.88;;;;;;;0.53;100.00;99896.28;5058693;28;20028;-51
2023/03/08 01:56:59;;;;;;;6.88;1.83;;;;;;;0.52;100.00;99889.28;5093271;28;20032;-51
2023/03/08 01:59:25;;;;;;;10.35;2.63;;;;;;;0.55;100.00;99891.66;5085462;28;20439;-50
2023/03/08 02:01:51;;;;;;;8.73;2.03;;;;;;;0.56;100.00;99890.69;5085536;28;20489;-51
2023/03/08 02:04:16;;;;;;;11.52;2.60;;;;;;;0.59;100.00;99882.47;5090242;28;20035;-53
2023/03/08 02:06:41;;;;;;;12.65;2.80;;;;;;;0.50;100.00;99883.31;5071226;28;20056;-51
2023/03/08 02:09:07;;;;;;;12.60;2.08;;;;;;;0.40;100.00;99874.53;5069141;28;20024;-51
2023/03/08 02:11:34;;;;;;;14.70;2.78;;;;;;;0.33;100.00;99868.13;5072418;28;20043;-51
2023/03/08 02:14:00;;;;;;;7.88;2.05;;;;;;;0.26;100.00;99869.66;5069278;28;20071;-50
2023/03/08 02:16:25;;;;;;;4.90;1.75;;;;;;;0.25;100.00;99862.72;5087058;28;20397;-52
2023/03/08 02:18:59;;;;;;;15.27;2.03;;;;;;;0.21;100.00;99863.00;5077855;28;20037;-52
2023/03/08 02:21:26;;;;;;;22.40;2.13;;;;;;;0.24;100.00;99866.31;5070666;28;20107;-51
2023/03/08 02:23:51;;;;;;;24.27;2.45;;;;;;;0.22;100.00;99856.72;5070551;28;20451;-52
2023/03/08 02:26:17;;;;;;;6.32;1.98;;;;;;;0.19;100.00;99843.75;5070292;28;20096;-52
2023/03/08 02:28:42;;;;;;;9.10;1.77;;;;;;;0.16;100.00;99851.16;5069744;28;20037;-55
2023/03/08 02:31:09;;;;;;;7.57;2.08;;;;;;;0.12;100.00;99845.28;5070389;28;20056;-51
2023/03/08 02:33:34;;;;;;;4.45;1.63;;;;;;;0.08;100.00;99846.56;5070004;28;20025;-53
2023/03/08 02:36:01;;;;;;;8.02;1.80;;;;;;;0.06;100.00;99845.84;5070242;28;20032;-50
2023/03/08 02:38:27;;;;;;;8.83;2.17;;;;;;;0.03;100.00;99843.50;5070258;28;20043;-51
2023/03/08 02:40:52;;;;;;;13.30;2.33;;;;;;;0.02;100.00;99843.63;5070916;28;20769;-52
2023/03/08 02:43:18;;;;;;;9.70;2.50;;;;;;;-0.04;100.00;99850.31;5070072;28;20031;-52
2023/03/08 02:45:44;;;;;;;7.90;1.85;;;;;;;-0.08;100.00;99846.25;5077550;28;20470;-53
2023/03/08 02:48:09;;;;;;;13.07;2.45;;;;;;;-0.14;100.00;99854.75;5090220;28;20036;-53
2023/03/08 02:50:35;;;;;;;6.38;2.08;;;;;;;-0.24;100.00;99852.06;5074657;28;20348;-52
2023/03/08 02:53:01;;;;;;;4.88;1.75;;;;;;;-0.29;100.00;99854.28;5069717;28;20172;-52
2023/03/08 02:55:26;;;;;;;5.03;1.45;;;;;;;-0.34;100.00;99861.78;5074306;28;20066;-53
2023/03/08 02:57:52;;;;;;;11.70;1.80;;;;;;;-0.41;100.00;99850.94;5089692;28;20398;-52
2023/03/08 03:00:18;;;;;;;8.75;1.98;;;;;;;-0.43;100.00;99847.59;5077801;28;20029;-52
2023/03/08 03:02:43;;;;;;;19.60;2.35;;;;;;;-0.44;100.00;99845.94;5090192;28;20442;-52
2023/03/08 03:05:11;;;;;;;11.13;2.45;;;;;;;-0.46;100.00;99834.66;5089812;28;20486;-54
2023/03/08 03:07:38;;;;;;;5.15;2.30;;;;;;;-0.40;100.00;99817.41;5089933;28;20016;-54
2023/03/08 03:10:05;;;;;;;16.23;2.78;;;;;;;-0.32;100.00;99817.56;5077488;28;20044;-52
2023/03/08 03:12:30;;;;;;;13.43;2.30;;;;;;;-0.34;100.00;99809.78;5070500;28;20079;-54
2023/03/08 03:14:56;;;;;;;7.82;2.25;;;;;;;-0.32;100.00;99812.25;5069026;28;20063;-52
2023/03/08 03:17:21;;;;;;;17.85;2.70;;;;;;;-0.33;100.00;99808.78;5069833;28;20134;-50
2023/03/08 03:19:46;;;;;;;10.35;2.80;;;;;;;-0.35;100.00;99800.16;5068968;28;20044;-52
2023/03/08 03:22:12;;;;;;;9.00;3.00;;;;;;;-0.34;100.00;99804.50;5092351;28;20134;-52
2023/03/08 03:24:38;;;;;;;17.65;3.22;;;;;;;-0.29;100.00;99790.84;5088811;28;20483;-52
2023/03/08 03:27:04;;;;;;;7.10;2.60;;;;;;;-0.26;100.00;99786.13;5073106;28;20029;-51
2023/03/08 03:29:29;;;;;;;9.18;3.25;;;;;;;-0.29;100.00;99786.41;5072509;28;20059;-53
2023/03/08 03:31:55;;;;;;;9.80;2.80;;;;;;;-0.26;100.00;99770.25;5072749;28;20064;-51
2023/03/08 03:34:20;;;;;;;6.40;2.67;;;;;;;-0.22;100.00;99762.88;5073483;28;20024;-52
2023/03/08 03:36:45;;;;;;;14.93;3.30;;;;;;;-0.24;100.00;99768.31;5090166;28;20023;-50
2023/03/08 03:39:11;;;;;;;11.38;3.03;;;;;;;-0.27;100.00;99762.47;5088743;28;20028;-53
2023/03/08 03:41:36;;;;;;;6.15;3.30;;;;;;;-0.29;100.00;99767.03;5074687;28;20042;-52
2023/03/08 03:44:02;;;;;;;15.90;3.78;;;;;;;-0.28;100.00;99756.34;5073108;28;20035;-53
2023/03/08 03:46:27;;;;;;;12.18;4.45;;;;;;;-0.28;100.00;99758.16;5072760;28;20052;-53
2023/03/08 03:48:53;;;;;;;9.70;3.47;;;;;;;-0.27;100.00;99768.56;5072970;28;20081;-51
2023/03/08 03:51:20;;;;;;;15.82;4.43;;;;;;;-0.16;100.00;99772.06;5081190;28;20063;-52
2023/03/08 03:53:46;;;;;;;6.30;2.73;;;;;;;-0.20;100.00;99762.75;5072745;28;20497;-52
2023/03/08 03:56:14;;;;;;;17.92;3.20;;;;;;;-0.20;100.00;99762.75;5072541;28;20298;-53
2023/03/08 03:58:40;;;;;;;;;;;;;;;-0.14;100.00;99757.72;5071691;28;20127;-52
2023/03/08 04:01:10;;;;;;;7.70;2.90;;;;;;;-0.20;100.00;99747.72;5073313;28;19991;-52
2023/03/08 04:03:35;;;;;;;12.75;3.22;;;;;;;-0.23;100.00;99754.13;5082584;28;20028;-52
2023/03/08 04:06:07;;;;;;;13.60;3.58;;;;;;;-0.28;100.00;99744.94;5092442;28;20385;-52
2023/03/08 04:08:33;;;;;;;12.23;3.42;;;;;;;-0.31;100.00;99743.41;5092441;28;20120;-51
2023/03/08 04:10:59;;;;;;;6.50;3.08;;;;;;;-0.32;100.00;99739.06;5073623;28;20024;-53
2023/03/08 04:13:24;;;;;;;16.90;3.13;;;;;;;-0.28;100.00;99735.19;5072074;28;20526;-52
2023/03/08 04:15:50;;;;;;;11.52;3.35;;;;;;;-0.22;100.00;99733.78;5072147;28;20024;-51
2023/03/08 04:18:15;;;;;;;7.20;3.40;;;;;;;-0.22;100.00;99710.81;5072154;28;20482;-53
2023/03/08 04:20:41;;;;;;;16.17;3.50;;;;;;;-0.14;100.00;99712.75;5071908;28;20586;-50
2023/03/08 04:23:06;;;;;;;7.32;3.42;;;;;;;-0.12;100.00;99712.63;5072037;28;20457;-54
2023/03/08 04:25:31;;;;;;;12.48;3.80;;;;;;;-0.05;100.00;99708.47;5079361;28;20074;-51
2023/03/08 04:27:57;;;;;;;20.52;4.05;;;;;;;-0.06;100.00;99709.41;5092073;28;20032;-50
2023/03/08 04:30:22;;;;;;;14.98;4.20;;;;;;;-0.05;100.00;99704.00;5078890;28;20103;-52
2023/03/08 04:32:47;;;;;;;15.82;4.30;;;;;;;0.00;100.00;99706.22;5070650;28;20026;-53
2023/03/08 04:35:13;;;;;;;9.73;4.35;;;;;;;-0.05;100.00;99703.16;5072064;28;20055;-51
2023/03/08 04:37:39;;;;;;;14.70;5.15;;;;;;;-0.01;100.00;99699.25;5071747;28;20055;-52
2023/03/08 04:40:08;;;;;;;19.98;5.85;;;;;;;0.03;100.00;99698.00;5071462;28;20029;-52
2023/03/08 04:42:33;;;;;;;13.93;6.15;;;;;;;-0.03;100.00;99699.41;5052474;28;20028;-52
2023/03/08 04:44:58;;;;;;;13.98;6.75;;;;;;;-0.01;100.00;99689.50;5051558;28;20040;-53
2023/03/08 04:47:24;;;;;;;15.77;8.05;;;;;;;0.02;100.00;99687.56;5053492;28;20091;-53
2023/03/08 04:49:49;;;;;;;17.17;7.80;;;;;;;0.02;100.00;99691.03;5076818;28;20080;-53
2023/03/08 04:52:15;;;;;;;15.95;7.72;;;;;;;0.00;100.00;99685.06;5091367;28;20051;-51
2023/03/08 04:54:40;;;;;;;19.60;8.15;;;;;;;0.08;100.00;99677.25;5092146;28;20056;-51
2023/03/08 04:57:05;;;;;;;19.67;8.68;;;;;;;0.11;100.00;99655.78;5092052;28;20396;-50
2023/03/08 04:59:31;;;;;;;18.13;8.95;;;;;;;0.15;100.00;99651.88;5068224;28;20044;-52
2023/03/08 05:01:56;;;;;;;14.95;9.10;;;;;;;0.07;100.00;99640.34;5081367;28;20043;-52
2023/03/08 05:04:21;;;;;;;20.83;8.73;;;;;;;0.11;100.00;99645.22;5089944;28;20118;-52
2023/03/08 05:06:47;;;;;;;19.55;7.40;;;;;;;0.17;100.00;99641.97;5089146;28;20061;-53
2023/03/08 05:09:12;;;;;;;23.98;7.28;;;;;;;0.20;100.00;99633.75;5087055;28;20584;-51
2023/03/08 05:11:37;;;;;;;15.85;7.35;;;;;;;0.26;100.00;99637.63;5085354;28;20039;-52
2023/03/08 05:14:03;;;;;;;16.58;7.20;;;;;;;0.27;100.00;99625.25;5086921;28;20054;-51
2023/03/08 05:16:28;;;;;;;17.80;6.40;;;;;;;0.33;100.00;99614.91;5072736;28;20530;-52
2023/03/08 05:18:53;;;;;;;15.23;6.25;;;;;;;0.32;100.00;99597.34;5071639;28;20139;-50
2023/03/08 05:21:21;;;;;;;10.88;5.70;;;;;;;0.32;100.00;99589.41;5072258;28;20059;-50
2023/03/08 05:23:46;;;;;;;17.33;5.43;;;;;;;0.32;100.00;99573.53;5069455;28;20056;-51
2023/03/08 05:26:14;;;;;;;12.77;5.60;;;;;;;0.30;100.00;99559.63;5070162;28;20442;-53
2023/03/08 05:28:40;;;;;;;20.25;7.07;;;;;;;0.35;100.00;99560.00;5050978;28;20064;-52
2023/03/08 05:31:12;;;;;;;17.95;7.45;;;;;;;0.34;100.00;99558.34;5068520;28;20108;-52
2023/03/08 05:33:38;;;;;;;19.55;8.18;;;;;;;0.34;100.00;99555.72;5070208;28;20124;-53
2023/03/08 05:36:04;;;;;;;22.55;8.88;;;;;;;0.42;100.00;99570.81;5070411;28;20040;-50
2023/03/08 05:38:29;;;;;;;22.05;10.80;;;;;;;0.47;100.00;99560.63;5070584;28;20043;-52
2023/03/08 05:41:00;;;;;;;24.75;11.57;;;;;;;0.47;100.00;99554.50;5070423;28;20028;-51
2023/03/08 05:43:25;;;;;;;34.30;12.70;;;;;;;0.49;100.00;99547.25;5081620;28;20028;-53
2023/03/08 05:45:58;;;;;;;34.78;13.18;;;;;;;0.52;100.00;99547.78;5091201;28;20046;-53
2023/03/08 05:48:24;;;;;;;26.45;13.20;;;;;;;0.57;100.00;99540.22;5070607;28;20501;-52
2023/03/08 05:50:50;;;;;;;34.30;13.73;;;;;;;0.56;100.00;99543.88;5071289;28;20021;-51
2023/03/08 05:53:15;;;;;;;30.15;13.40;;;;;;;0.58;100.00;99541.91;5069871;28;20441;-50
2023/03/08 05:55:41;;;;;;;29.60;13.02;;;;;;;0.58;100.00;99531.31;5069773;28;20031;-53
2023/03/08 05:58:06;;;;;;;38.80;16.20;;;;;;;0.54;100.00;99529.94;5069867;28;20579;-52
2023/03/08 06:00:31;;;;;;;39.60;16.10;;;;;;;0.57;100.00;99528.81;5075675;28;20379;-53
2023/03/08 06:03:02;;;;;;;33.35;16.45;;;;;;;0.54;100.00;99529.94;5069521;28;20032;-52
2023/03/08 06:05:28;;;;;;;45.80;16.30;;;;;;;0.54;100.00;99529.09;5069733;28;20075;-52
2023/03/08 06:07:54;;;;;;;41.78;17.02;;;;;;;0.51;100.00;99524.94;5069253;28;20032;-54
2023/03/08 06:10:19;;;;;;;43.05;18.05;;;;;;;0.50;100.00;99525.94;5059755;28;20041;-53
2023/03/08 06:12:44;;;;;;;42.53;18.50;;;;;;;0.51;100.00;99534.72;5057757;28;20094;-54
2023/03/08 06:15:11;;;;;;;45.92;19.33;;;;;;;0.41;100.00;99535.59;5069309;28;20024;-53
2023/03/08 06:17:37;;;;;;;48.38;21.13;;;;;;;0.45;100.00;99538.78;5054484;28;20167;-50
2023/03/08 06:20:03;;;;;;;49.20;21.65;;;;;;;0.44;100.00;99545.03;5069719;28;20111;-50
2023/03/08 06:22:28;;;;;;;52.97;22.30;;;;;;;0.42;100.00;99541.72;5070222;28;20051;-54
2023/03/08 06:24:54;;;;;;;50.85;23.00;;;;;;;0.39;100.00;99547.31;5070131;28;20032;-53
2023/03/08 06:27:19;;;;;;;60.00;23.98;;;;;;;0.38;100.00;99537.72;5069956;28;20379;-52
2023/03/08 06:29:45;;;;;;;63.00;25.02;;;;;;;0.35;100.00;99530.91;5070176;28;20029;-55
2023/03/08 06:32:10;;;;;;;58.47;24.65;;;;;;;0.35;100.00;99540.66;5069616;28;20029;-53
2023/03/08 06:34:35;;;;;;;58.85;24.35;;;;;;;0.32;100.00;99540.97;5068486;28;20324;-52
2023/03/08 06:37:01;;;;;;;67.10;24.77;;;;;;;0.35;100.00;99538.00;5069593;28;20395;-50
2023/03/08 06:39:29;;;;;;;69.60;27.00;;;;;;;0.34;100.00;99538.97;5069519;28;20142;-51
2023/03/08 06:41:55;;;;;;;71.32;28.35;;;;;;;0.31;100.00;99542.75;5069655;28;20028;-52
2023/03/08 06:44:20;;;;;;;77.05;28.98;;;;;;;0.30;100.00;99537.63;5069251;28;20376;-52
2023/03/08 06:46:46;;;;;;;79.85;30.20;;;;;;;0.30;100.00;99537.63;5069445;28;20096;-52
2023/03/08 06:49:11;;;;;;;75.32;28.65;;;;;;;0.24;100.00;99540.84;5069187;28;20619;-53
2023/03/08 06:51:37;;;;;;;78.72;27.50;;;;;;;0.22;100.00;99536.53;5069441;28;20020;-52
2023/03/08 06:54:02;;;;;;;83.97;29.60;;;;;;;0.19;100.00;99536.00;5068577;28;20021;-53
2023/03/08 06:56:27;;;;;;;71.18;28.75;;;;;;;0.17;100.00;99532.66;5071915;28;20112;-53
2023/03/08 06:58:53;;;;;;;75.15;29.30;;;;;;;0.25;100.00;99542.53;5072550;28;20533;-53
2023/03/08 07:01:18;;;;;;;75.32;29.13;;;;;;;0.22;100.00;99539.19;5072117;28;20115;-55
2023/03/08 07:03:45;;;;;;;83.25;29.63;;;;;;;0.22;100.00;99536.53;5073216;28;20043;-51
2023/03/08 07:06:11;;;;;;;80.50;30.55;;;;;;;0.28;100.00;99526.34;5072842;28;20463;-49
2023/03/08 07:08:38;;;;;;;80.95;31.88;;;;;;;0.28;100.00;99529.00;5072831;28;20082;-55
2023/03/08 07:11:05;;;;;;;96.00;33.35;;;;;;;0.32;100.00;99533.84;5073623;28;20115;-52
2023/03/08 07:13:30;;;;;;;88.57;32.22;;;;;;;0.41;100.00;99527.66;5073011;28;20021;-51
2023/03/08 07:15:56;;;;;;;90.78;31.23;;;;;;;0.36;100.00;99527.25;5072182;28;20241;-53
2023/03/08 07:18:22;;;;;;;78.13;31.25;;;;;;;0.41;100.00;99527.66;5071967;28;20074;-52
2023/03/08 07:20:52;;;;;;;94.78;34.42;;;;;;;0.45;100.00;99522.91;5072788;28;20017;-52
2023/03/08 07:23:17;;;;;;;91.78;35.17;;;;;;;0.46;100.00;99519.28;5073495;28;20207;-50
2023/03/08 07:25:43;;;;;;;97.13;35.70;;;;;;;0.46;100.00;99515.78;5076421;28;20488;-52
2023/03/08 07:28:08;;;;;;;102.85;37.88;;;;;;;0.41;100.00;99516.22;5074531;28;20447;-52
2023/03/08 07:30:33;;;;;;;98.00;37.92;;;;;;;0.47;100.00;99510.34;5075048;28;20040;-51
2023/03/08 07:32:59;;;;;;;108.53;38.40;;;;;;;0.48;100.00;99516.47;5074444;28;20108;-50
2023/03/08 07:35:24;;;;;;;101.28;35.50;;;;;;;0.52;100.00;99510.72;5072236;28;20084;-52
2023/03/08 07:37:49;;;;;;;105.68;37.83;;;;;;;0.56;100.00;99512.09;5072826;28;20036;-49
2023/03/08 07:40:16;;;;;;;111.00;39.58;;;;;;;0.52;100.00;99510.72;5073135;28;20021;-52
2023/03/08 07:42:44;;;;;;;108.75;39.05;;;;;;;0.57;100.00;99508.44;5072061;28;20601;-52
2023/03/08 07:45:11;;;;;;;101.75;38.05;;;;;;;0.60;100.00;99513.44;5071075;28;20032;-54
2023/03/08 07:47:36;;;;;;;102.25;39.05;;;;;;;0.61;100.00;99509.84;5070942;28;20431;-51
2023/03/08 07:50:02;;;;;;;105.00;38.50;;;;;;;0.63;100.00;99515.81;5072087;28;20116;-52
2023/03/08 07:52:28;;;;;;;106.38;40.35;;;;;;;0.62;100.00;99510.66;5071710;28;20024;-53
2023/03/08 07:54:53;;;;;;;109.78;39.03;;;;;;;0.56;100.00;99506.81;5071377;28;20154;-51
2023/03/08 07:57:19;;;;;;;103.18;39.25;;;;;;;0.45;100.00;99501.72;5071853;28;20131;-52
2023/03/08 07:59:44;;;;;;;114.97;42.80;;;;;;;0.36;100.00;99506.09;5072011;28;20080;-52
2023/03/08 08:02:13;;;;;;;109.22;37.83;;;;;;;0.33;100.00;99500.28;5071393;28;20021;-50
2023/03/08 08:04:39;;;;;;;115.88;41.75;;;;;;;0.32;100.00;99503.91;5071778;28;20020;-52
2023/03/08 08:07:05;;;;;;;117.00;44.25;;;;;;;0.21;100.00;99492.56;5070116;28;20064;-55
2023/03/08 08:09:31;;;;;;;121.20;43.08;;;;;;;0.21;100.00;99496.97;5071666;28;20662;-53
2023/03/08 08:11:56;;;;;;;126.65;44.70;;;;;;;0.15;100.00;99503.72;5071767;28;20051;-50
2023/03/08 08:14:21;;;;;;;127.97;41.65;;;;;;;0.24;100.00;99498.50;5070566;28;20039;-51
2023/03/08 08:16:47;;;;;;;138.98;45.47;;;;;;;0.38;100.00;99498.00;5071844;28;20024;-50
2023/03/08 08:19:13;;;;;;;129.90;41.10;;;;;;;0.47;100.00;99489.16;5071628;28;20072;-53
2023/03/08 08:21:39;;;;;;;115.68;39.38;;;;;;;0.34;100.00;99491.34;5071641;28;20070;-51
2023/03/08 08:24:05;;;;;;;127.32;39.53;;;;;;;0.33;100.00;99494.97;5071333;28;20055;-53
2023/03/08 08:26:30;;;;;;;123.80;37.58;;;;;;;0.40;100.00;99482.81;5071440;28;20024;-55
2023/03/08 08:28:56;;;;;;;130.57;37.25;;;;;;;0.36;100.00;99489.38;5070365;28;20028;-53
2023/03/08 08:31:23;;;;;;;134.13;40.60;;;;;;;0.44;100.00;99487.63;5065538;28;20076;-52
2023/03/08 08:33:49;;;;;;;119.20;37.75;;;;;;;0.40;100.00;99480.19;5070820;28;20033;-52
2023/03/08 08:36:16;;;;;;;119.45;37.05;;;;;;;0.42;100.00;99473.75;5068400;28;20046;-51
2023/03/08 08:38:42;;;;;;;118.13;36.38;;;;;;;0.34;100.00;99462.22;5071369;28;20032;-52
2023/03/08 08:41:08;;;;;;;126.85;37.53;;;;;;;0.39;100.00;99462.63;5071448;28;20540;-53
2023/03/08 08:43:35;;;;;;;124.78;36.35;;;;;;;0.47;100.00;99475.09;5071490;28;20107;-52
2023/03/08 08:46:00;;;;;;;112.95;36.63;;;;;;;0.64;100.00;99461.03;5071339;28;20021;-52
2023/03/08 08:48:26;;;;;;;104.63;35.75;;;;;;;0.57;100.00;99466.09;5059380;28;20027;-51
2023/03/08 08:50:52;;;;;;;104.65;33.40;;;;;;;0.73;100.00;99469.88;5071237;28;20028;-51
2023/03/08 08:53:17;;;;;;;100.38;32.92;;;;;;;0.82;100.00;99463.69;5071569;28;20047;-53
2023/03/08 08:55:43;;;;;;;89.47;29.40;;;;;;;0.71;100.00;99455.94;5068653;28;20422;-52
2023/03/08 08:58:08;;;;;;;88.78;30.27;;;;;;;0.88;100.00;99452.47;5070697;28;20481;-52
2023/03/08 09:00:34;;;;;;;88.93;29.23;;;;;;;0.75;100.00;99457.31;5071239;28;20042;-53
2023/03/08 09:03:00;;;;;;;86.93;28.48;;;;;;;0.92;100.00;99456.44;5071178;28;20477;-52
2023/03/08 09:05:26;;;;;;;85.00;29.08;;;;;;;0.82;100.00;99439.84;5071428;28;20036;-51
2023/03/08 09:07:57;;;;;;;80.10;27.10;;;;;;;0.76;100.00;99428.03;5071221;28;20092;-51
2023/03/08 09:10:23;;;;;;;77.60;27.90;;;;;;;0.97;100.00;99430.31;5071126;28;20554;-51
2023/03/08 09:12:48;;;;;;;81.20;26.52;;;;;;;1.12;100.00;99421.84;5071831;28;20147;-54
2023/03/08 09:15:13;;;;;;;66.35;24.17;;;;;;;1.10;100.00;99412.19;5071031;28;20431;-51
2023/03/08 09:17:39;;;;;;;62.97;23.67;;;;;;;1.07;100.00;99412.50;5071269;28;20033;-55
2023/03/08 09:20:08;;;;;;;65.57;22.83;;;;;;;1.31;100.00;99411.00;5071028;28;20024;-53
2023/03/08 09:22:34;;;;;;;65.65;23.33;;;;;;;1.38;100.00;99404.09;5070641;28;20169;-55
2023/03/08 09:24:59;;;;;;;58.63;22.35;;;;;;;1.45;100.00;99404.28;5066984;28;20423;-54
2023/03/08 09:27:24;;;;;;;58.35;20.42;;;;;;;1.56;100.00;99389.94;5052135;28;20025;-51
2023/03/08 09:29:50;;;;;;;53.25;21.67;;;;;;;1.66;100.00;99393.25;5052890;28;20025;-52
2023/03/08 09:32:15;;;;;;;59.90;21.80;;;;;;;1.66;100.00;99388.81;5053350;28;20100;-52
2023/03/08 09:34:40;;;;;;;47.35;18.67;;;;;;;1.68;100.00;99386.81;5053372;28;20029;-53
2023/03/08 09:37:07;;;;;;;57.13;20.00;;;;;;;1.83;100.00;99387.03;5054220;28;20025;-54
2023/03/08 09:39:32;;;;;;;50.20;19.02;;;;;;;2.02;100.00;99393.03;5052979;28;20336;-51
2023/03/08 09:42:00;;;;;;;53.67;20.42;;;;;;;1.90;100.00;99397.84;5051507;28;20027;-53
2023/03/08 09:44:42;;;;;;;56.10;20.03;;;;;;;2.21;100.00;99387.44;5049828;28;20028;-52
2023/03/08 09:47:20;;;;;;;49.88;19.15;;;;;;;2.28;100.00;99383.13;5051138;28;20287;-54
2023/03/08 09:49:46;;;;;;;;;;;;;;;2.27;100.00;99378.81;5051091;28;20032;-54
2023/03/08 09:52:37;;;;;;;56.30;21.10;;;;;;;2.16;100.00;99377.31;5049239;28;20289;-50
2023/03/08 09:55:04;;;;;;;43.72;17.02;;;;;;;2.40;100.00;99381.00;5050401;28;20121;-52
2023/03/08 09:57:51;;;;;;;42.90;17.10;;;;;;;2.38;100.00;99382.97;5050451;28;20028;-56
2023/03/08 10:00:22;;;;;;;43.15;18.23;;;;;;;2.50;100.00;99372.84;5048864;28;20091;-52
2023/03/08 10:03:01;;;;;;;46.88;18.95;;;;;;;2.37;100.00;99360.06;5049221;28;20455;-52
2023/03/08 10:05:30;;;;;;;65.53;18.52;;;;;;;2.30;100.00;99362.56;5054034;28;20040;-52
2023/03/08 10:08:05;;;;;;;49.50;18.92;;;;;;;2.33;100.00;99348.97;5055738;28;20467;-52
2023/03/08 10:10:48;;;;;;;49.42;19.38;;;;;;;2.27;100.00;99352.28;5065905;28;20051;-53
2023/03/08 10:13:13;;;;;;;47.17;19.95;;;;;;;2.12;100.00;99346.78;5051884;28;20126;-52
2023/03/08 10:15:41;;;;;;;42.92;17.52;;;;;;;2.14;100.00;99338.66;5052936;28;20044;-51
2023/03/08 10:18:19;;;;;;;43.83;17.70;;;;;;;2.33;100.00;99327.72;5068532;28;20048;-50
2023/03/08 10:20:45;;;;;;;41.67;16.65;;;;;;;2.64;100.00;99316.41;5070050;28;20020;-50
2023/03/08 10:23:21;;;;;;;39.83;15.68;;;;;;;2.83;100.00;99313.38;5068845;28;20016;-53
2023/03/08 10:25:47;;;;;;;44.20;15.75;;;;;;;2.89;100.00;99316.38;5070221;28;20111;-52
2023/03/08 10:28:18;;;;;;;35.33;15.48;;;;;;;3.49;100.00;99319.28;5069174;28;20024;-51
2023/03/08 10:30:44;;;;;;;39.22;15.55;;;;;;;3.71;100.00;99332.81;5066495;28;20032;-51
2023/03/08 10:33:11;;;;;;;40.70;16.55;;;;;;;3.68;100.00;99336.66;5073109;28;20510;-51
2023/03/08 10:35:52;;;;;;;41.47;16.45;;;;;;;3.61;100.00;99334.88;5073290;28;20474;-52
2023/03/08 10:38:17;;;;;;;40.28;15.93;;;;;;;3.40;100.00;99333.66;5073358;28;20033;-52
2023/03/08 10:40:43;;;;;;;37.17;15.82;;;;;;;3.25;100.00;99327.38;5073930;28;20023;-51
2023/03/08 10:43:25;;;;;;;41.78;16.23;;;;;;;3.20;100.00;99317.25;5065962;28;20100;-49
2023/03/08 10:46:31;;;;;;;46.60;16.77;;;;;;;3.07;100.00;99323.13;5057968;28;20421;-50
2023/03/08 10:49:08;;;;;;;43.70;17.75;;;;;;;2.99;100.00;99332.94;5023033;28;20037;-53
2023/03/08 10:51:34;;;;;;;44.95;17.08;;;;;;;2.92;100.00;99334.63;5054163;28;20420;-51
2023/03/08 10:54:03;;;;;;;41.90;16.13;;;;;;;3.08;100.00;99322.13;5065041;28;20036;-50
2023/03/08 10:56:39;;;;;;;40.13;15.60;;;;;;;3.44;100.00;99321.66;5066136;28;20061;-52
2023/03/08 10:59:12;;;;;;;44.70;15.48;;;;;;;3.67;100.00;99316.38;5052136;28;20094;-53
2023/03/08 11:01:50;;;;;;;38.05;15.98;;;;;;;3.64;100.00;99314.06;5057520;28;20052;-51
2023/03/08 11:04:18;;;;;;;34.15;14.43;;;;;;;3.52;100.00;99302.16;5073419;28;20028;-53
2023/03/08 11:06:43;;;;;;;43.13;15.63;;;;;;;3.38;100.00;99313.53;5072893;28;20036;-52
2023/03/08 11:09:27;;;;;;;44.63;16.13;;;;;;;3.16;100.00;99312.44;5072492;28;20135;-53
2023/03/08 11:11:59;;;;;;;45.60;14.98;;;;;;;3.37;100.00;99317.19;5073534;28;20032;-50
2023/03/08 11:14:25;;;;;;;49.00;15.65;;;;;;;3.28;100.00;99305.78;5074457;28;20039;-50
2023/03/08 11:17:26;;;;;;;55.10;18.65;;;;;;;3.36;100.00;99297.75;5075052;28;20090;-53
2023/03/08 11:19:58;;;;;;;44.75;18.17;;;;;;;3.24;100.00;99301.81;5074751;28;20098;-51